Time;durP1;ratioP1;P1;durP2;ratioP2;P2;SDS_P1;SDS_P2;PMS_P1;PMS_P2;Temp;Humidity;BMP_temperature;BMP_pressure;BME280_temperature;BME280_humidity;BME280_pressure;Samples;Min_cycle;Max_cycle;Signal;HPM_P1;HPM_P2
2023/09/23 00:00:47;;;;;;;17.10;7.10;;;;;;;20.88;94.35;94731.31;5152213;27;20199;-46
2023/09/23 00:03:14;;;;;;;16.70;7.88;;;;;;;20.86;94.28;94727.34;5135642;27;20274;-46
2023/09/23 00:05:41;;;;;;;10.88;6.72;;;;;;;20.84;94.29;94721.53;5131244;27;20207;-46
2023/09/23 00:08:08;;;;;;;19.75;7.32;;;;;;;20.78;94.27;94721.31;5130932;27;20192;-46
2023/09/23 00:10:35;;;;;;;17.55;6.90;;;;;;;20.79;94.30;94728.13;5131211;27;20554;-47
2023/09/23 00:13:02;;;;;;;18.33;6.45;;;;;;;20.75;94.25;94723.50;5131421;27;20189;-47
2023/09/23 00:15:31;;;;;;;21.90;7.13;;;;;;;20.73;94.52;94730.72;5130825;27;20228;-45
2023/09/23 00:17:57;;;;;;;12.68;6.35;;;;;;;20.70;94.79;94731.91;5131350;27;20189;-46
2023/09/23 00:20:27;;;;;;;19.85;7.05;;;;;;;20.69;94.56;94726.94;5130822;27;20224;-45
2023/09/23 00:22:54;;;;;;;11.82;6.32;;;;;;;20.66;94.63;94719.53;5130966;27;20189;-48
2023/09/23 00:25:23;;;;;;;18.10;6.32;;;;;;;20.60;94.91;94717.72;5130579;27;20829;-45
2023/09/23 00:27:54;;;;;;;17.50;6.68;;;;;;;20.59;94.96;94735.09;5130793;27;20215;-46
2023/09/23 00:30:22;;;;;;;12.25;6.70;;;;;;;20.56;95.61;94734.72;5130544;27;20295;-47
2023/09/23 00:32:51;;;;;;;13.10;5.78;;;;;;;20.50;95.71;94725.88;5130950;27;20192;-45
2023/09/23 00:35:18;;;;;;;16.20;6.57;;;;;;;20.43;95.78;94728.47;5130926;27;20180;-45
2023/09/23 00:37:48;;;;;;;19.00;6.07;;;;;;;20.45;95.61;94725.66;5130913;27;20187;-45
2023/09/23 00:40:17;;;;;;;13.57;6.63;;;;;;;20.34;96.04;94719.25;5130721;27;20715;-45
2023/09/23 00:42:47;;;;;;;14.50;6.18;;;;;;;20.35;96.69;94730.44;5130852;27;20276;-45
2023/09/23 00:45:17;;;;;;;10.73;6.22;;;;;;;20.30;96.99;94729.25;5130753;27;20610;-45
2023/09/23 00:47:45;;;;;;;16.77;6.93;;;;;;;20.27;96.83;94729.63;5130493;27;20188;-46
2023/09/23 00:50:18;;;;;;;9.88;6.28;;;;;;;20.23;97.33;94725.81;5131077;27;20184;-44
2023/09/23 00:52:48;;;;;;;13.93;6.20;;;;;;;20.19;97.31;94724.59;5131031;27;20215;-46
2023/09/23 00:55:16;;;;;;;12.27;5.85;;;;;;;20.15;97.37;94728.59;5130368;27;20228;-45
2023/09/23 00:57:53;;;;;;;13.60;7.03;;;;;;;20.15;97.22;94718.19;5130250;27;20611;-45
2023/09/23 01:00:25;;;;;;;24.52;7.13;;;;;;;20.14;96.70;94723.59;5130516;27;20447;-46
2023/09/23 01:02:55;;;;;;;9.90;6.13;;;;;;;20.10;96.40;94718.00;5130643;27;20215;-47
2023/09/23 01:05:27;;;;;;;14.38;6.47;;;;;;;20.09;97.02;94711.22;5130627;27;20194;-44
2023/09/23 01:07:56;;;;;;;15.90;6.65;;;;;;;20.08;97.30;94720.00;5130790;27;20187;-46
2023/09/23 01:10:23;;;;;;;14.80;6.28;;;;;;;20.05;97.46;94720.38;5130275;27;20180;-44
2023/09/23 01:12:50;;;;;;;19.95;7.43;;;;;;;20.04;97.52;94723.97;5130324;28;20362;-46
2023/09/23 01:15:18;;;;;;;16.33;6.20;;;;;;;20.02;97.53;94725.94;5130357;28;20188;-46
2023/09/23 01:17:47;;;;;;;11.20;6.15;;;;;;;19.94;97.97;94716.53;5131488;27;20564;-46
2023/09/23 01:20:16;;;;;;;16.20;6.97;;;;;;;19.93;98.29;94724.53;5134873;27;20291;-46
2023/09/23 01:22:44;;;;;;;12.70;5.93;;;;;;;19.89;98.58;94720.72;5134370;27;20181;-45
2023/09/23 01:25:11;;;;;;;10.95;6.40;;;;;;;19.85;98.61;94716.91;5134822;27;20245;-45
2023/09/23 01:27:37;;;;;;;14.18;6.28;;;;;;;19.83;98.84;94717.13;5134491;27;20231;-46
2023/09/23 01:30:05;;;;;;;16.50;6.15;;;;;;;19.82;98.55;94715.53;5135523;27;20196;-46
2023/09/23 01:32:45;;;;;;;9.63;5.77;;;;;;;19.80;98.45;94715.69;5134609;27;20657;-47
2023/09/23 01:35:12;;;;;;;12.55;5.75;;;;;;;19.79;98.52;94723.69;5134430;27;20204;-47
2023/09/23 01:37:39;;;;;;;11.38;6.35;;;;;;;19.74;98.41;94715.69;5134122;27;20722;-47
2023/09/23 01:40:09;;;;;;;17.42;6.35;;;;;;;19.75;98.46;94715.47;5134135;27;20211;-46
2023/09/23 01:42:36;;;;;;;11.83;6.10;;;;;;;19.73;98.31;94717.47;5133959;27;20194;-46
2023/09/23 01:45:04;;;;;;;10.20;6.00;;;;;;;19.70;98.17;94712.66;5134413;27;20657;-47
2023/09/23 01:47:31;;;;;;;13.17;5.90;;;;;;;19.71;97.99;94719.44;5133832;27;20682;-48
2023/09/23 01:49:58;;;;;;;12.03;5.87;;;;;;;19.70;97.64;94715.25;5133817;27;20200;-45
2023/09/23 01:52:25;;;;;;;10.15;6.75;;;;;;;19.70;97.82;94720.44;5134145;27;20184;-46
2023/09/23 01:54:51;;;;;;;15.02;5.78;;;;;;;19.70;97.63;94717.06;5133955;27;20223;-46
2023/09/23 01:57:20;;;;;;;12.20;6.68;;;;;;;19.70;97.70;94711.88;5133434;27;20196;-47
2023/09/23 01:59:47;;;;;;;9.90;5.70;;;;;;;19.68;97.66;94716.44;5134114;27;20208;-45
2023/09/23 02:02:17;;;;;;;11.90;6.20;;;;;;;19.64;97.21;94708.25;5133814;27;20192;-45
2023/09/23 02:04:45;;;;;;;13.77;6.13;;;;;;;19.66;97.44;94719.25;5134168;27;20185;-46
2023/09/23 02:07:13;;;;;;;13.93;6.40;;;;;;;19.64;97.78;94720.41;5133959;27;20196;-47
2023/09/23 02:09:40;;;;;;;9.37;6.13;;;;;;;19.62;97.82;94710.22;5133389;27;20188;-46
2023/09/23 02:12:07;;;;;;;10.17;5.50;;;;;;;19.64;97.71;94710.81;5133852;27;20568;-44
2023/09/23 02:14:35;;;;;;;9.03;5.93;;;;;;;19.58;97.74;94719.38;5133841;27;20868;-46
2023/09/23 02:17:02;;;;;;;15.17;6.10;;;;;;;19.59;97.95;94720.16;5133871;27;20610;-46
2023/09/23 02:19:29;;;;;;;15.97;6.30;;;;;;;19.56;98.22;94723.97;5133205;27;20208;-44
2023/09/23 02:21:55;;;;;;;15.48;5.70;;;;;;;19.53;98.42;94724.34;5133793;27;20233;-45
2023/09/23 02:24:22;;;;;;;11.10;6.10;;;;;;;19.51;98.80;94724.50;5133584;27;20184;-45
2023/09/23 02:26:49;;;;;;;16.00;6.60;;;;;;;19.49;98.81;94731.69;5133193;27;20280;-46
2023/09/23 02:29:16;;;;;;;10.57;6.07;;;;;;;19.30;99.17;94715.03;5132404;27;20230;-47
2023/09/23 02:31:48;;;;;;;12.10;5.70;;;;;;;19.44;99.69;94741.06;5133246;27;20192;-44
2023/09/23 02:34:17;;;;;;;20.27;6.10;;;;;;;19.44;99.87;94738.44;5133107;27;20189;-46
2023/09/23 02:36:45;;;;;;;15.15;6.40;;;;;;;19.43;99.82;94748.03;5133314;27;20656;-46
2023/09/23 02:39:15;;;;;;;15.95;6.68;;;;;;;19.37;99.99;94733.22;5132854;27;20351;-47
2023/09/23 02:41:45;;;;;;;12.27;5.75;;;;;;;19.40;100.00;94745.81;5133108;27;20239;-45
2023/09/23 02:44:12;;;;;;;11.73;6.50;;;;;;;19.36;100.00;94747.19;5132908;27;20219;-46
2023/09/23 02:46:40;;;;;;;10.98;5.90;;;;;;;19.36;100.00;94756.75;5132868;27;20188;-46
2023/09/23 02:49:09;;;;;;;11.53;6.57;;;;;;;19.33;100.00;94754.53;5132978;27;20194;-45
2023/09/23 02:51:36;;;;;;;15.30;6.40;;;;;;;19.30;100.00;94751.34;5133257;27;20538;-46
2023/09/23 02:54:03;;;;;;;12.40;5.90;;;;;;;19.29;100.00;94749.72;5132784;27;20195;-45
2023/09/23 02:56:30;;;;;;;15.48;6.32;;;;;;;19.29;100.00;94756.69;5132796;27;20345;-47
2023/09/23 02:58:59;;;;;;;12.68;6.15;;;;;;;19.27;100.00;94749.13;5132820;27;20184;-47
2023/09/23 03:01:27;;;;;;;13.85;6.07;;;;;;;19.26;99.79;94759.69;5132721;27;20270;-45
2023/09/23 03:03:55;;;;;;;11.93;6.20;;;;;;;18.95;100.00;94714.19;5132766;27;20514;-46
2023/09/23 03:06:23;;;;;;;12.67;5.70;;;;;;;19.22;100.00;94759.25;5132395;27;20290;-46
2023/09/23 03:08:54;;;;;;;14.63;6.63;;;;;;;19.19;100.00;94756.25;5132909;27;20181;-46
2023/09/23 03:11:21;;;;;;;14.17;6.27;;;;;;;19.15;100.00;94757.63;5132682;27;20275;-45
2023/09/23 03:13:49;;;;;;;14.70;5.97;;;;;;;19.15;100.00;94760.19;5133769;27;20618;-45
2023/09/23 03:16:28;;;;;;;11.17;5.93;;;;;;;19.11;100.00;94753.78;5132657;27;20203;-45
2023/09/23 03:19:10;;;;;;;12.00;6.37;;;;;;;19.09;100.00;94751.41;5133178;27;20191;-46
2023/09/23 03:21:42;;;;;;;14.13;6.17;;;;;;;19.05;100.00;94757.94;5132440;27;20295;-46
2023/09/23 03:24:11;;;;;;;15.77;6.33;;;;;;;18.97;100.00;94751.09;5133255;27;20188;-45
2023/09/23 03:26:38;;;;;;;16.37;6.83;;;;;;;18.99;100.00;94756.09;5132304;27;20719;-46
2023/09/23 03:29:06;;;;;;;17.77;6.00;;;;;;;18.99;100.00;94762.06;5132543;27;20184;-45
2023/09/23 03:31:33;;;;;;;8.90;5.57;;;;;;;18.98;100.00;94762.28;5131876;27;20188;-45
2023/09/23 03:34:03;;;;;;;12.53;5.93;;;;;;;18.96;100.00;94762.47;5152584;27;20184;-45
2023/09/23 03:36:31;;;;;;;15.47;6.40;;;;;;;18.96;100.00;94759.06;5152717;27;20188;-46
2023/09/23 03:39:00;;;;;;;17.60;6.80;;;;;;;18.94;100.00;94755.84;5153880;27;20195;-48
2023/09/23 03:41:28;;;;;;;13.90;5.80;;;;;;;18.89;100.00;94751.22;5151419;27;20769;-46
2023/09/23 03:43:55;;;;;;;9.40;5.90;;;;;;;18.89;100.00;94753.03;5152659;27;20644;-44
2023/09/23 03:46:21;;;;;;;14.93;6.20;;;;;;;18.87;100.00;94757.59;5152307;27;20691;-45
2023/09/23 03:48:48;;;;;;;16.47;6.27;;;;;;;18.82;100.00;94762.53;5152479;27;20192;-47
2023/09/23 03:51:15;;;;;;;13.47;6.60;;;;;;;18.80;100.00;94763.53;5152577;27;20187;-45
2023/09/23 03:53:44;;;;;;;14.90;6.17;;;;;;;18.78;100.00;94762.09;5152353;27;20211;-46
2023/09/23 03:56:12;;;;;;;11.07;6.33;;;;;;;18.76;100.00;94759.69;5152324;27;20187;-47
2023/09/23 03:58:39;;;;;;;16.87;6.70;;;;;;;18.72;100.00;94762.84;5152212;27;20217;-45
2023/09/23 04:01:10;;;;;;;15.03;6.67;;;;;;;18.70;100.00;94762.25;5152160;27;20604;-47
2023/09/23 04:03:37;;;;;;;21.77;6.67;;;;;;;18.69;100.00;94758.81;5152307;27;20666;-46
2023/09/23 04:06:05;;;;;;;17.37;6.20;;;;;;;18.65;100.00;94767.97;5152343;27;20202;-45
2023/09/23 04:08:32;;;;;;;14.40;5.83;;;;;;;18.66;100.00;94766.16;5151685;27;20568;-45
2023/09/23 04:11:03;;;;;;;20.47;6.47;;;;;;;18.65;100.00;94770.56;5152550;27;20271;-46
2023/09/23 04:13:31;;;;;;;12.43;6.03;;;;;;;18.63;100.00;94766.53;5151927;27;20249;-45
2023/09/23 04:16:01;;;;;;;12.43;6.13;;;;;;;18.43;100.00;94745.59;5152215;27;20234;-46
2023/09/23 04:18:28;;;;;;;13.03;6.47;;;;;;;18.62;100.00;94781.28;5152148;27;20596;-45
2023/09/23 04:20:56;;;;;;;11.23;6.17;;;;;;;18.62;100.00;94788.25;5151729;27;20265;-46
2023/09/23 04:23:22;;;;;;;13.40;6.27;;;;;;;18.65;100.00;94790.44;5151893;27;20195;-46
2023/09/23 04:25:50;;;;;;;19.40;7.23;;;;;;;18.69;100.00;94791.69;5152006;27;20219;-46
2023/09/23 04:28:17;;;;;;;16.40;6.60;;;;;;;18.71;100.00;94787.97;5151469;27;20278;-45
2023/09/23 04:30:45;;;;;;;13.80;6.27;;;;;;;18.74;100.00;94797.97;5151790;27;20215;-45
2023/09/23 04:33:12;;;;;;;14.60;6.80;;;;;;;18.75;100.00;94794.38;5151728;27;20184;-45
2023/09/23 04:35:39;;;;;;;16.43;6.47;;;;;;;18.73;100.00;94800.72;5151443;27;20240;-45
2023/09/23 04:38:07;;;;;;;12.93;5.87;;;;;;;18.74;100.00;94807.53;5151552;27;20203;-47
2023/09/23 04:40:33;;;;;;;13.67;6.43;;;;;;;18.74;100.00;94815.31;5151365;27;20679;-47
2023/09/23 04:43:04;;;;;;;17.43;6.37;;;;;;;18.78;100.00;94821.69;5151251;27;20218;-47
2023/09/23 04:45:30;;;;;;;14.33;5.80;;;;;;;18.85;100.00;94824.34;5151637;27;20191;-46
2023/09/23 04:48:00;;;;;;;17.37;6.67;;;;;;;18.91;100.00;94824.44;5151591;27;20195;-46
2023/09/23 04:50:28;;;;;;;13.80;6.77;;;;;;;18.94;100.00;94816.25;5151095;27;20240;-47
2023/09/23 04:52:54;;;;;;;19.13;7.23;;;;;;;19.00;100.00;94820.72;5151149;27;20627;-46
2023/09/23 04:55:22;;;;;;;14.27;6.13;;;;;;;19.05;100.00;94820.97;5151119;27;20580;-47
2023/09/23 04:57:49;;;;;;;20.93;7.33;;;;;;;19.12;100.00;94821.00;5151105;27;20681;-45
2023/09/23 05:00:19;;;;;;;17.93;6.57;;;;;;;19.19;100.00;94824.44;5151062;27;20332;-47
2023/09/23 05:02:49;;;;;;;13.53;6.93;;;;;;;19.25;99.51;94821.09;5151167;27;20211;-45
2023/09/23 05:05:18;;;;;;;15.53;6.70;;;;;;;19.39;99.48;94829.00;5150793;27;20274;-45
2023/09/23 05:07:45;;;;;;;13.17;6.80;;;;;;;19.51;98.77;94830.06;5151282;27;20251;-47
2023/09/23 05:10:12;;;;;;;15.53;6.70;;;;;;;19.65;98.11;94834.41;5151080;27;20286;-44
2023/09/23 05:12:40;;;;;;;18.83;6.70;;;;;;;19.41;97.58;94762.16;5151103;27;20188;-45
2023/09/23 05:15:09;;;;;;;14.40;7.60;;;;;;;20.03;96.74;94837.41;5150986;27;20187;-45
2023/09/23 05:17:37;;;;;;;18.33;7.78;;;;;;;20.24;96.29;94835.69;5150666;27;20187;-45
2023/09/23 05:20:16;;;;;;;25.30;14.75;;;;;;;20.48;94.92;94835.22;5150905;27;20222;-45
2023/09/23 05:22:44;;;;;;;24.35;12.70;;;;;;;20.74;92.83;94841.50;5150927;27;20287;-45
2023/09/23 05:25:11;;;;;;;17.55;9.93;;;;;;;21.06;91.89;94832.13;5150891;27;20655;-47
2023/09/23 05:27:39;;;;;;;21.48;11.60;;;;;;;21.32;90.22;94827.97;5150721;27;20318;-43
2023/09/23 05:30:08;;;;;;;16.27;7.68;;;;;;;21.48;89.50;94832.75;5150599;27;20282;-45
2023/09/23 05:32:37;;;;;;;16.35;8.05;;;;;;;21.76;88.58;94832.50;5150795;27;20187;-46
2023/09/23 05:35:07;;;;;;;16.20;7.68;;;;;;;22.04;87.28;94827.06;5150623;27;20194;-47
2023/09/23 05:37:35;;;;;;;15.18;6.90;;;;;;;22.29;86.10;94828.00;5150760;27;20187;-46
2023/09/23 05:40:23;;;;;;;19.10;7.18;;;;;;;22.53;85.49;94836.88;5150563;27;20223;-47
2023/09/23 05:42:50;;;;;;;21.73;7.90;;;;;;;22.83;82.91;94830.31;5150910;27;20187;-47
2023/09/23 05:45:18;;;;;;;18.27;7.43;;;;;;;22.93;81.42;94830.72;5150654;27;20271;-46
2023/09/23 05:47:45;;;;;;;12.77;7.65;;;;;;;23.01;80.59;94838.25;5150817;27;20219;-45
2023/09/23 05:50:12;;;;;;;18.45;8.45;;;;;;;23.12;79.79;94837.59;5150500;27;20223;-46
2023/09/23 05:52:39;;;;;;;18.05;7.03;;;;;;;23.13;78.39;94844.41;5150638;27;20184;-46
2023/09/23 05:55:08;;;;;;;13.45;7.55;;;;;;;23.16;77.89;94845.78;5150653;27;20180;-46
2023/09/23 05:57:35;;;;;;;23.60;7.90;;;;;;;23.26;77.51;94846.09;5150689;27;20199;-46
2023/09/23 06:00:05;;;;;;;16.92;8.80;;;;;;;23.35;77.29;94847.44;5150529;27;20184;-46
2023/09/23 06:02:32;;;;;;;16.00;7.68;;;;;;;23.62;76.56;94852.44;5150424;27;20191;-46
2023/09/23 06:05:01;;;;;;;19.42;7.97;;;;;;;23.82;75.44;94842.66;5152029;27;20263;-49
2023/09/23 06:07:28;;;;;;;19.42;7.05;;;;;;;23.94;74.40;94846.16;5154648;27;20192;-47
2023/09/23 06:09:55;;;;;;;18.42;6.93;;;;;;;24.09;74.11;94845.78;5154340;27;20794;-46
2023/09/23 06:12:24;;;;;;;13.65;7.35;;;;;;;24.27;73.63;94856.25;5153871;27;20192;-47
2023/09/23 06:14:52;;;;;;;17.15;7.30;;;;;;;24.37;71.75;94849.69;5154662;27;20180;-47
2023/09/23 06:17:19;;;;;;;18.85;7.70;;;;;;;24.31;71.26;94838.31;5153902;27;20270;-46
2023/09/23 06:19:46;;;;;;;14.02;6.68;;;;;;;24.70;71.42;94865.03;5154361;27;20233;-48
2023/09/23 06:22:12;;;;;;;18.40;6.93;;;;;;;24.91;69.79;94863.72;5153785;27;20290;-47
2023/09/23 06:24:39;;;;;;;15.55;6.43;;;;;;;24.88;69.12;94872.03;5154145;27;20210;-47
2023/09/23 06:27:06;;;;;;;15.15;5.95;;;;;;;24.83;69.26;94867.47;5154022;27;20745;-46
2023/09/23 06:29:34;;;;;;;20.77;7.07;;;;;;;24.96;68.85;94863.88;5153982;27;20248;-46
2023/09/23 06:32:01;;;;;;;15.68;6.82;;;;;;;25.10;69.18;94859.28;5154137;27;20212;-47
2023/09/23 06:34:28;;;;;;;20.52;7.00;;;;;;;25.26;67.94;94871.72;5154116;27;20188;-46
2023/09/23 06:36:54;;;;;;;15.18;6.55;;;;;;;25.44;67.32;94868.22;5153933;27;20229;-46
2023/09/23 06:39:23;;;;;;;18.15;7.40;;;;;;;25.51;66.63;94881.97;5153794;27;20187;-47
2023/09/23 06:41:50;;;;;;;23.33;6.40;;;;;;;25.66;66.61;94866.63;5153292;27;20803;-45
2023/09/23 06:44:17;;;;;;;25.58;6.18;;;;;;;25.76;65.84;94863.44;5153704;27;20720;-46
2023/09/23 06:46:45;;;;;;;25.95;7.30;;;;;;;26.06;65.28;94865.19;5153542;27;20655;-45
2023/09/23 06:49:12;;;;;;;17.30;6.22;;;;;;;26.15;65.12;94869.81;5153614;27;20191;-47
2023/09/23 06:51:39;;;;;;;15.77;6.90;;;;;;;26.08;64.32;94848.19;5153763;27;20183;-48
2023/09/23 06:54:07;;;;;;;25.13;7.20;;;;;;;26.45;64.05;94872.31;5153208;27;20679;-47
2023/09/23 06:56:36;;;;;;;20.45;8.20;;;;;;;26.61;63.20;94880.50;5153361;27;20249;-45
2023/09/23 06:59:03;;;;;;;22.77;8.20;;;;;;;26.80;63.07;94881.09;5153649;27;20191;-47
2023/09/23 07:01:29;;;;;;;19.13;7.88;;;;;;;26.89;62.10;94879.69;5153484;27;20226;-47
2023/09/23 07:03:57;;;;;;;16.42;7.18;;;;;;;27.13;61.98;94890.94;5153837;27;20187;-47
2023/09/23 07:06:24;;;;;;;17.75;7.60;;;;;;;27.35;62.10;94880.53;5158112;27;20184;-47
2023/09/23 07:08:51;;;;;;;19.58;8.30;;;;;;;27.60;60.55;94894.09;5154292;27;20191;-48
2023/09/23 07:11:18;;;;;;;17.05;6.90;;;;;;;27.83;58.93;94895.78;5153383;27;20183;-47
2023/09/23 07:13:46;;;;;;;19.63;6.35;;;;;;;27.94;59.36;94888.84;5152801;27;20670;-45
2023/09/23 07:16:14;;;;;;;21.25;6.90;;;;;;;27.93;58.99;94874.88;5153502;27;20658;-46
2023/09/23 07:18:41;;;;;;;13.73;6.10;;;;;;;28.30;58.13;94891.94;5152730;27;20230;-47
2023/09/23 07:21:09;;;;;;;16.45;6.72;;;;;;;28.52;58.00;94889.38;5152848;27;20227;-46
2023/09/23 07:23:37;;;;;;;19.08;6.65;;;;;;;28.58;57.27;94888.38;5152481;27;20195;-46
2023/09/23 07:26:04;;;;;;;17.45;7.63;;;;;;;28.57;56.57;94892.84;5152623;27;20230;-44
2023/09/23 07:28:31;;;;;;;17.70;6.40;;;;;;;28.55;55.92;94888.88;5152757;27;20594;-47
2023/09/23 07:30:58;;;;;;;16.60;7.05;;;;;;;28.60;55.53;94892.38;5152506;27;20184;-46
2023/09/23 07:33:25;;;;;;;20.75;6.80;;;;;;;28.77;55.94;94894.94;5152700;27;20692;-47
2023/09/23 07:35:51;;;;;;;16.92;6.93;;;;;;;28.83;54.75;94893.13;5152248;27;20730;-47
2023/09/23 07:38:20;;;;;;;15.60;6.43;;;;;;;28.93;54.54;94899.31;5152791;27;20191;-47
2023/09/23 07:40:48;;;;;;;19.58;6.82;;;;;;;28.98;54.48;94898.59;5152097;27;20695;-45
2023/09/23 07:43:15;;;;;;;12.98;6.45;;;;;;;28.98;54.52;94888.88;5152505;27;20733;-47
2023/09/23 07:45:42;;;;;;;20.23;6.30;;;;;;;29.02;54.32;94883.09;5152317;27;20187;-47
2023/09/23 07:48:09;;;;;;;15.65;6.10;;;;;;;29.11;53.96;94878.97;5152175;27;20191;-46
2023/09/23 07:50:35;;;;;;;22.33;8.18;;;;;;;29.34;53.22;94883.94;5152219;27;20199;-45
2023/09/23 07:53:02;;;;;;;22.00;7.82;;;;;;;29.47;53.31;94882.72;5152214;27;20572;-47
2023/09/23 07:55:30;;;;;;;25.20;8.02;;;;;;;29.54;52.69;94882.53;5151947;27;20255;-46
2023/09/23 07:57:57;;;;;;;22.55;7.32;;;;;;;29.49;52.68;94885.88;5152143;27;20275;-46
2023/09/23 08:00:24;;;;;;;24.10;7.20;;;;;;;29.49;52.93;94875.34;5152156;27;20723;-47
2023/09/23 08:02:51;;;;;;;20.23;7.65;;;;;;;29.74;52.92;94883.47;5151930;27;20590;-46
2023/09/23 08:05:18;;;;;;;22.27;8.02;;;;;;;29.95;52.29;94881.00;5151971;27;20609;-46
2023/09/23 08:07:45;;;;;;;22.65;7.35;;;;;;;29.97;51.58;94876.25;5152203;27;20187;-46
2023/09/23 08:10:12;;;;;;;17.90;6.82;;;;;;;29.89;52.13;94866.97;5152291;27;20206;-47
2023/09/23 08:12:40;;;;;;;27.73;7.32;;;;;;;29.93;51.91;94870.69;5151870;27;20191;-45
2023/09/23 08:15:09;;;;;;;18.50;6.88;;;;;;;29.88;51.75;94867.22;5151972;27;20338;-46
2023/09/23 08:17:36;;;;;;;21.63;7.85;;;;;;;29.94;51.42;94859.09;5151713;27;20196;-46
2023/09/23 08:20:14;;;;;;;18.83;8.25;;;;;;;29.91;51.73;94864.88;5151939;27;20722;-46
2023/09/23 08:22:41;;;;;;;18.08;7.72;;;;;;;29.93;51.35;94872.56;5151617;27;20247;-47
2023/09/23 08:25:08;;;;;;;19.58;6.88;;;;;;;29.82;51.99;94866.41;5151906;27;20211;-47
2023/09/23 08:27:35;;;;;;;12.55;6.38;;;;;;;29.87;51.43;94865.63;5150682;27;20230;-47
2023/09/23 08:30:05;;;;;;;11.52;6.05;;;;;;;29.90;51.74;94858.00;5151487;27;20183;-48
2023/09/23 08:32:31;;;;;;;17.10;6.28;;;;;;;30.14;51.04;94853.19;5151439;27;20566;-46
2023/09/23 08:34:58;;;;;;;14.98;6.95;;;;;;;30.24;50.30;94861.13;5151561;27;20175;-46
2023/09/23 08:37:25;;;;;;;18.35;8.38;;;;;;;30.02;50.39;94852.56;5151218;27;20195;-46
2023/09/23 08:39:52;;;;;;;22.60;6.70;;;;;;;29.97;50.48;94857.81;5151759;27;20199;-46
2023/09/23 08:42:19;;;;;;;25.05;7.20;;;;;;;29.92;50.29;94860.38;5151530;27;20219;-46
2023/09/23 08:44:48;;;;;;;28.45;6.93;;;;;;;29.98;50.85;94860.19;5151304;27;20200;-45
2023/09/23 08:47:18;;;;;;;22.05;7.07;;;;;;;30.12;50.92;94855.22;5151369;27;20188;-46
2023/09/23 08:49:47;;;;;;;17.90;6.65;;;;;;;30.32;50.66;94854.59;5151243;27;20621;-46
2023/09/23 08:52:15;;;;;;;15.95;6.97;;;;;;;30.47;49.84;94852.00;5151706;27;20196;-46
2023/09/23 08:54:43;;;;;;;12.88;6.30;;;;;;;30.49;49.58;94843.84;5151220;27;20660;-47
2023/09/23 08:57:10;;;;;;;15.57;6.05;;;;;;;30.58;49.10;94847.56;5151435;27;20194;-46
2023/09/23 08:59:37;;;;;;;14.52;6.55;;;;;;;30.72;49.31;94845.25;5150845;27;20569;-47
2023/09/23 09:02:05;;;;;;;18.70;6.28;;;;;;;30.80;48.57;94844.75;5151002;27;20676;-45
2023/09/23 09:04:34;;;;;;;13.75;6.65;;;;;;;30.82;48.90;94841.81;5151226;27;20217;-47
2023/09/23 09:07:01;;;;;;;17.42;6.43;;;;;;;30.99;48.30;94848.47;5151076;27;20191;-45
2023/09/23 09:09:27;;;;;;;14.18;6.00;;;;;;;31.02;48.35;94833.94;5150831;27;20556;-46
2023/09/23 09:11:55;;;;;;;19.45;6.57;;;;;;;31.03;48.12;94826.81;5150804;27;20632;-48
2023/09/23 09:14:23;;;;;;;17.55;7.10;;;;;;;31.06;47.37;94840.28;5150634;27;20660;-47
2023/09/23 09:16:51;;;;;;;21.67;7.10;;;;;;;31.08;47.83;94840.03;5150920;27;20191;-46
2023/09/23 09:19:21;;;;;;;16.77;6.80;;;;;;;31.09;47.04;94834.50;5132251;27;20267;-45
2023/09/23 09:21:51;;;;;;;23.88;7.22;;;;;;;31.04;47.03;94836.31;5132508;27;20226;-44
2023/09/23 09:24:18;;;;;;;13.75;6.18;;;;;;;31.04;46.53;94842.38;5150920;27;20198;-46
2023/09/23 09:26:45;;;;;;;18.50;6.35;;;;;;;30.98;46.58;94830.25;5150647;27;20750;-47
2023/09/23 09:29:12;;;;;;;19.60;6.68;;;;;;;30.89;46.92;94832.59;5150729;27;20271;-48
2023/09/23 09:31:39;;;;;;;16.85;5.70;;;;;;;30.85;47.09;94825.47;5150558;27;20598;-47
2023/09/23 09:34:09;;;;;;;16.65;6.43;;;;;;;30.83;46.71;94827.56;5151054;27;20191;-47
2023/09/23 09:36:39;;;;;;;10.43;5.85;;;;;;;30.86;46.43;94813.84;5150881;27;20183;-45
2023/09/23 09:39:09;;;;;;;13.68;5.40;;;;;;;30.81;46.42;94819.91;5150931;27;20187;-46
2023/09/23 09:41:46;;;;;;;17.10;5.53;;;;;;;30.76;46.41;94809.34;5154860;27;20215;-45
2023/09/23 09:44:14;;;;;;;13.43;5.85;;;;;;;30.80;46.57;94806.97;5154472;27;20656;-47
2023/09/23 09:46:42;;;;;;;19.60;5.82;;;;;;;30.76;46.45;94800.63;5155284;27;20183;-44
2023/09/23 09:49:10;;;;;;;20.55;6.22;;;;;;;30.80;45.86;94807.75;5154818;27;20184;-46
2023/09/23 09:51:39;;;;;;;19.33;5.25;;;;;;;30.69;46.28;94812.19;5154953;27;20195;-46
2023/09/23 09:54:11;;;;;;;18.95;5.38;;;;;;;30.66;46.07;94802.16;5154747;27;20191;-47
2023/09/23 09:56:40;;;;;;;17.55;5.93;;;;;;;30.66;46.07;94793.47;5155197;27;20258;-47
2023/09/23 09:59:07;;;;;;;25.65;6.28;;;;;;;30.69;46.50;94791.06;5154752;27;20191;-45
2023/09/23 10:01:35;;;;;;;17.17;5.38;;;;;;;30.78;46.02;94780.03;5154343;27;20230;-46
2023/09/23 10:04:10;;;;;;;16.55;5.32;;;;;;;30.77;45.88;94786.38;5154457;27;20663;-46
2023/09/23 10:06:41;;;;;;;21.00;5.65;;;;;;;30.78;46.22;94775.53;5154437;27;20191;-46
2023/09/23 10:09:17;;;;;;;16.35;5.43;;;;;;;30.78;45.98;94774.75;5154825;27;20268;-47
2023/09/23 10:11:53;;;;;;;18.63;6.28;;;;;;;30.79;45.61;94771.84;5154351;27;20225;-46
2023/09/23 10:14:20;;;;;;;17.02;6.28;;;;;;;30.67;45.66;94748.31;5154223;27;20282;-46
2023/09/23 10:16:51;;;;;;;26.90;6.38;;;;;;;30.85;45.65;94767.38;5154365;27;20183;-47
2023/09/23 10:19:29;;;;;;;17.60;6.05;;;;;;;30.92;45.34;94760.78;5154457;27;20269;-47
2023/09/23 10:22:08;;;;;;;19.95;6.97;;;;;;;30.93;44.75;94754.44;5154496;27;20246;-47
2023/09/23 10:24:36;;;;;;;27.35;5.53;;;;;;;31.06;44.17;94752.31;5154403;27;20241;-46
2023/09/23 10:27:06;;;;;;;17.17;6.00;;;;;;;31.14;43.76;94757.88;5153740;27;20235;-45
2023/09/23 10:29:44;;;;;;;18.17;5.78;;;;;;;31.14;43.84;94754.44;5154006;27;20282;-46
2023/09/23 10:32:12;;;;;;;26.05;7.68;;;;;;;31.08;44.09;94750.19;5153848;27;20183;-47
2023/09/23 10:34:46;;;;;;;16.98;5.13;;;;;;;31.04;44.14;94759.69;5153646;27;20227;-47
2023/09/23 10:37:15;;;;;;;13.93;5.50;;;;;;;31.06;44.44;94752.31;5154201;27;20215;-46
2023/09/23 10:39:45;;;;;;;25.20;7.35;;;;;;;31.11;44.08;94747.03;5153902;27;20243;-47
2023/09/23 10:42:14;;;;;;;16.10;5.30;;;;;;;31.15;43.72;94734.88;5153876;27;20825;-48
2023/09/23 10:44:41;;;;;;;13.30;5.20;;;;;;;31.20;43.85;94745.44;5153889;27;20322;-47
2023/09/23 10:47:09;;;;;;;20.48;6.22;;;;;;;31.32;43.11;94732.78;5154141;27;20243;-46
2023/09/23 10:49:36;;;;;;;17.33;5.80;;;;;;;31.33;43.14;94730.91;5153691;27;20256;-46
2023/09/23 10:52:03;;;;;;;16.88;5.43;;;;;;;31.38;42.67;94728.25;5153305;27;20200;-46
2023/09/23 10:54:30;;;;;;;15.57;5.57;;;;;;;31.42;42.08;94724.81;5153650;27;20184;-46
2023/09/23 10:57:00;;;;;;;17.00;6.65;;;;;;;31.45;41.84;94726.13;5153708;27;20627;-47
2023/09/23 10:59:27;;;;;;;17.48;5.00;;;;;;;31.55;41.72;94717.38;5153517;27;20188;-47
2023/09/23 11:01:55;;;;;;;17.02;5.40;;;;;;;31.56;41.46;94711.81;5153295;27;20216;-47
2023/09/23 11:04:23;;;;;;;25.40;5.50;;;;;;;31.61;41.36;94708.41;5153437;27;20184;-46
2023/09/23 11:06:50;;;;;;;22.63;7.63;;;;;;;31.56;41.21;94692.53;5153331;27;20191;-48
2023/09/23 11:09:20;;;;;;;26.98;6.68;;;;;;;31.64;41.05;94698.03;5153255;27;20202;-46
2023/09/23 11:11:47;;;;;;;21.60;5.75;;;;;;;31.67;41.08;94692.22;5153233;27;20280;-46
2023/09/23 11:14:15;;;;;;;15.43;5.00;;;;;;;31.71;40.76;94690.63;5153173;27;20199;-47
2023/09/23 11:16:43;;;;;;;23.80;6.22;;;;;;;31.73;40.58;94677.91;5152619;27;20301;-44
2023/09/23 11:19:10;;;;;;;15.50;5.00;;;;;;;31.71;40.04;94679.25;5153233;27;20222;-47
2023/09/23 11:21:42;;;;;;;22.52;6.22;;;;;;;31.75;39.90;94680.31;5152992;27;20579;-49
2023/09/23 11:24:09;;;;;;;20.35;6.22;;;;;;;31.81;40.00;94670.50;5153107;27;20299;-46
2023/09/23 11:26:39;;;;;;;16.63;5.85;;;;;;;31.86;39.66;94678.44;5152765;27;20816;-47
2023/09/23 11:29:05;;;;;;;19.65;7.35;;;;;;;31.88;39.88;94671.81;5152909;27;20188;-47